Time;durP1;ratioP1;P1;durP2;ratioP2;P2;SDS_P1;SDS_P2;PMS_P1;PMS_P2;Temp;Humidity;BMP_temperature;BMP_pressure;BME280_temperature;BME280_humidity;BME280_pressure;Samples;Min_cycle;Max_cycle;Signal;HPM_P1;HPM_P2
2023/06/23 00:00:01;;;;;;;12.77;9.85;;;19.20;99.90;;;;;;5064088;28;20037;-67
2023/06/23 00:02:30;;;;;;;21.15;10.52;;;19.20;99.90;;;;;;5059797;28;20025;-68
2023/06/23 00:04:55;;;;;;;19.88;10.15;;;19.20;99.90;;;;;;5047913;28;20514;-67
2023/06/23 00:07:21;;;;;;;13.00;8.73;;;19.20;99.90;;;;;;5064358;28;20070;-67
2023/06/23 00:09:47;;;;;;;12.70;9.47;;;19.10;99.90;;;;;;5059481;28;20435;-67
2023/06/23 00:12:12;;;;;;;10.40;8.83;;;19.10;99.90;;;;;;5059328;28;20125;-67
2023/06/23 00:14:38;;;;;;;13.97;9.07;;;19.20;99.90;;;;;;5059054;28;20511;-67
2023/06/23 00:17:05;;;;;;;12.07;8.30;;;19.30;99.90;;;;;;5063343;28;20127;-67
2023/06/23 00:19:31;;;;;;;14.82;9.10;;;19.30;99.90;;;;;;5059401;28;20044;-67
2023/06/23 00:21:58;;;;;;;13.50;9.32;;;19.30;99.90;;;;;;5064397;28;20055;-67
2023/06/23 00:24:23;;;;;;;13.70;9.98;;;19.30;99.90;;;;;;5059661;28;20412;-67
2023/06/23 00:26:50;;;;;;;17.03;11.40;;;19.30;99.90;;;;;;5061833;28;20021;-68
2023/06/23 00:29:16;;;;;;;14.93;10.25;;;19.40;99.90;;;;;;5060361;28;20116;-67
2023/06/23 00:31:42;;;;;;;17.37;9.77;;;19.40;99.90;;;;;;5059348;28;20119;-67
2023/06/23 00:34:08;;;;;;;15.43;10.82;;;19.40;99.90;;;;;;5062913;28;20067;-67
2023/06/23 00:36:33;;;;;;;18.33;11.37;;;19.40;99.90;;;;;;5056458;28;20056;-67
2023/06/23 00:39:01;;;;;;;18.43;11.97;;;19.30;99.90;;;;;;5056251;28;20033;-67
2023/06/23 00:41:27;;;;;;;14.93;10.85;;;19.30;99.90;;;;;;5060613;28;20116;-67
2023/06/23 00:43:52;;;;;;;19.67;11.63;;;19.40;99.90;;;;;;5056223;28;20443;-66
2023/06/23 00:46:20;;;;;;;19.03;11.33;;;19.40;99.90;;;;;;5041395;28;20564;-67
2023/06/23 00:48:48;;;;;;;17.45;11.70;;;19.40;99.90;;;;;;5054668;28;20082;-68
2023/06/23 00:51:15;;;;;;;14.68;11.90;;;19.40;99.90;;;;;;5059675;28;20528;-66
2023/06/23 00:53:45;;;;;;;19.15;12.88;;;19.40;99.90;;;;;;5059505;28;20496;-66
2023/06/23 00:56:11;;;;;;;16.13;11.48;;;19.40;99.90;;;;;;5059643;28;20131;-67
2023/06/23 00:58:37;;;;;;;19.73;11.70;;;19.40;99.90;;;;;;5057683;28;20552;-67
2023/06/23 01:01:03;;;;;;;19.80;11.27;;;19.20;99.90;;;;;;5060745;28;20027;-67
2023/06/23 01:03:29;;;;;;;15.40;11.60;;;19.20;99.90;;;;;;5061860;28;20029;-67
2023/06/23 01:06:01;;;;;;;20.40;12.73;;;19.30;99.90;;;;;;5058054;28;20086;-67
2023/06/23 01:08:34;;;;;;;19.10;12.30;;;19.30;99.90;;;;;;5058939;28;20056;-67
2023/06/23 01:11:15;;;;;;;18.75;12.52;;;19.30;99.90;;;;;;5060994;28;20085;-67
2023/06/23 01:13:52;;;;;;;20.00;12.80;;;19.40;99.90;;;;;;5063400;28;20036;-66
2023/06/23 01:16:37;;;;;;;19.63;12.95;;;19.40;99.90;;;;;;5060652;28;20033;-66
2023/06/23 01:19:09;;;;;;;19.98;13.93;;;19.40;99.90;;;;;;5068244;28;20045;-67
2023/06/23 01:22:03;;;;;;;20.35;12.75;;;19.30;99.90;;;;;;5058456;28;20104;-66
2023/06/23 01:25:01;;;;;;;19.52;13.60;;;19.30;99.90;;;;;;5058852;28;20432;-66
2023/06/23 01:27:52;;;;;;;17.70;12.70;;;19.20;99.90;;;;;;5058281;28;20024;-66
2023/06/23 01:30:21;;;;;;;23.13;12.88;;;19.30;99.90;;;;;;5058237;28;20899;-66
2023/06/23 01:32:54;;;;;;;15.88;12.90;;;19.30;99.90;;;;;;5059392;28;20025;-66
2023/06/23 01:35:24;;;;;;;19.23;12.07;;;19.30;99.90;;;;;;5059208;28;20040;-67
2023/06/23 01:37:54;;;;;;;18.67;13.02;;;19.20;99.90;;;;;;5061745;28;20044;-67
2023/06/23 01:40:24;;;;;;;20.05;12.57;;;19.20;99.90;;;;;;5061590;28;20403;-67
2023/06/23 01:42:54;;;;;;;18.88;12.07;;;19.10;99.90;;;;;;5062344;28;20024;-66
2023/06/23 01:45:22;;;;;;;16.67;12.00;;;19.00;99.90;;;;;;5065048;28;20396;-67
2023/06/23 01:47:49;;;;;;;19.70;12.95;;;19.10;99.90;;;;;;5057124;28;20020;-66
2023/06/23 01:50:16;;;;;;;28.95;13.38;;;19.10;99.90;;;;;;5060661;28;20066;-66
2023/06/23 01:52:44;;;;;;;19.10;12.75;;;19.10;99.90;;;;;;5060420;28;20111;-67
2023/06/23 01:55:12;;;;;;;18.88;13.35;;;19.10;99.90;;;;;;5061125;28;20495;-67
2023/06/23 01:57:39;;;;;;;17.30;12.93;;;19.10;99.90;;;;;;5048027;28;20480;-67
2023/06/23 02:00:11;;;;;;;23.00;12.60;;;19.10;99.90;;;;;;5060021;28;20040;-67
2023/06/23 02:02:38;;;;;;;21.52;12.07;;;19.10;99.90;;;;;;5063299;28;20016;-67
2023/06/23 02:05:05;;;;;;;18.40;13.32;;;19.10;99.90;;;;;;5063667;28;20131;-67
2023/06/23 02:07:33;;;;;;;19.70;12.82;;;18.90;99.90;;;;;;5059708;28;20492;-67
2023/06/23 02:10:00;;;;;;;24.65;12.85;;;19.00;99.90;;;;;;5061202;28;20429;-67
2023/06/23 02:12:27;;;;;;;22.02;12.80;;;19.00;99.90;;;;;;5041986;28;20028;-67
2023/06/23 02:14:53;;;;;;;24.83;13.48;;;19.10;99.90;;;;;;5060635;28;20408;-67
2023/06/23 02:17:21;;;;;;;20.08;13.23;;;19.10;99.90;;;;;;5062520;28;20112;-67
2023/06/23 02:19:49;;;;;;;16.67;12.93;;;19.10;99.90;;;;;;5056324;28;20028;-67
2023/06/23 02:22:19;;;;;;;24.55;14.23;;;19.00;99.90;;;;;;5060751;28;20839;-67
2023/06/23 02:24:47;;;;;;;25.33;13.35;;;19.00;99.90;;;;;;5058367;28;20039;-67
2023/06/23 02:27:12;;;;;;;19.42;13.35;;;18.90;99.90;;;;;;5059012;28;20050;-67
2023/06/23 02:29:41;;;;;;;32.13;13.70;;;18.90;99.90;;;;;;5059551;28;20488;-67
2023/06/23 02:32:08;;;;;;;25.13;12.77;;;18.80;99.90;;;;;;5059908;28;20033;-67
2023/06/23 02:34:35;;;;;;;22.23;13.82;;;18.80;99.90;;;;;;5062327;28;20040;-67
2023/06/23 02:37:04;;;;;;;27.65;14.82;;;18.80;99.90;;;;;;5060353;28;20028;-67
2023/06/23 02:39:33;;;;;;;19.45;13.32;;;18.80;99.90;;;;;;5064016;28;20033;-67
2023/06/23 02:42:00;;;;;;;22.60;14.13;;;18.80;99.90;;;;;;5059616;28;20020;-67
2023/06/23 02:44:39;;;;;;;20.70;14.15;;;18.70;99.90;;;;;;5038328;28;20025;-67
2023/06/23 02:47:13;;;;;;;23.95;14.75;;;18.70;99.90;;;;;;5062773;28;20021;-67
2023/06/23 02:49:39;;;;;;;23.60;15.77;;;18.70;99.90;;;;;;5059136;28;20040;-67
2023/06/23 02:52:08;;;;;;;21.40;15.93;;;18.50;99.90;;;;;;5048597;28;20537;-67
2023/06/23 02:54:40;;;;;;;23.25;15.60;;;18.50;99.90;;;;;;5059228;28;20060;-67
2023/06/23 02:57:12;;;;;;;24.85;16.42;;;18.50;99.90;;;;;;5065336;28;20472;-67
2023/06/23 02:59:39;;;;;;;19.17;15.10;;;18.50;99.90;;;;;;5060414;28;20480;-67
2023/06/23 03:02:08;;;;;;;21.63;16.70;;;18.50;99.90;;;;;;5061547;28;20024;-67
2023/06/23 03:04:36;;;;;;;29.38;17.50;;;18.50;99.90;;;;;;5060240;28;20028;-67
2023/06/23 03:07:05;;;;;;;29.83;16.60;;;18.50;99.90;;;;;;5059442;28;20060;-67
2023/06/23 03:09:31;;;;;;;25.80;15.95;;;18.50;99.90;;;;;;5059175;28;20020;-67
2023/06/23 03:11:56;;;;;;;30.00;18.10;;;18.50;99.90;;;;;;5063498;28;20488;-67
2023/06/23 03:14:23;;;;;;;31.47;18.63;;;18.40;99.90;;;;;;5058823;28;20036;-67
2023/06/23 03:17:04;;;;;;;29.58;18.42;;;18.30;99.90;;;;;;5064265;28;20027;-67
2023/06/23 03:20:06;;;;;;;27.63;17.42;;;18.30;99.90;;;;;;5058723;28;20051;-67
2023/06/23 03:22:38;;;;;;;28.83;17.42;;;18.20;99.90;;;;;;5055863;28;20035;-67
2023/06/23 03:25:08;;;;;;;28.20;16.80;;;18.10;99.90;;;;;;5059199;28;20086;-67
2023/06/23 03:27:37;;;;;;;27.77;17.85;;;18.10;99.90;;;;;;5060760;28;20056;-67
2023/06/23 03:30:09;;;;;;;27.33;17.63;;;18.10;99.90;;;;;;5059074;28;20033;-67
2023/06/23 03:32:43;;;;;;;32.72;18.25;;;17.90;99.90;;;;;;5062500;28;20032;-67
2023/06/23 03:35:13;;;;;;;30.73;18.58;;;18.00;99.90;;;;;;5055807;28;20021;-66
2023/06/23 03:37:45;;;;;;;30.00;18.85;;;18.00;99.90;;;;;;5055364;28;20115;-67
2023/06/23 03:40:14;;;;;;;28.02;18.92;;;18.00;99.90;;;;;;5055964;28;20037;-67
2023/06/23 03:42:47;;;;;;;31.60;18.95;;;18.00;99.90;;;;;;5061128;28;20115;-67
2023/06/23 03:45:14;;;;;;;29.77;19.35;;;18.00;99.90;;;;;;5061070;28;20078;-67
2023/06/23 03:47:42;;;;;;;30.13;18.77;;;18.00;99.90;;;;;;5044677;28;20034;-67
2023/06/23 03:50:13;;;;;;;34.38;19.98;;;17.90;99.90;;;;;;5060372;28;20025;-67
2023/06/23 03:52:42;;;;;;;24.40;18.60;;;17.80;99.90;;;;;;5058703;28;20036;-67
2023/06/23 03:55:11;;;;;;;32.85;19.00;;;17.80;99.90;;;;;;5063640;28;20654;-67
2023/06/23 03:57:39;;;;;;;27.15;18.13;;;17.80;99.90;;;;;;5058032;28;20411;-67
2023/06/23 04:00:06;;;;;;;24.83;19.80;;;17.80;99.90;;;;;;5057865;28;20083;-67
2023/06/23 04:02:33;;;;;;;35.78;20.58;;;17.90;99.90;;;;;;5059268;28;20032;-66
2023/06/23 04:05:00;;;;;;;29.73;19.80;;;17.90;99.90;;;;;;5056716;28;20032;-66
2023/06/23 04:07:28;;;;;;;30.15;20.13;;;17.90;99.90;;;;;;5057678;28;20025;-67
2023/06/23 04:09:56;;;;;;;32.90;18.85;;;17.90;99.90;;;;;;5059555;28;20103;-67
2023/06/23 04:12:23;;;;;;;31.55;19.13;;;17.90;99.90;;;;;;5060024;28;20053;-67
2023/06/23 04:14:52;;;;;;;30.80;18.65;;;17.90;99.90;;;;;;5060079;28;20032;-67
2023/06/23 04:17:22;;;;;;;31.67;20.42;;;18.00;99.90;;;;;;5060566;28;20017;-67
2023/06/23 04:19:50;;;;;;;30.23;19.38;;;18.10;99.90;;;;;;5054740;28;20056;-67
2023/06/23 04:22:18;;;;;;;28.38;19.08;;;18.10;99.90;;;;;;5059926;28;20060;-67
2023/06/23 04:24:45;;;;;;;29.83;20.48;;;18.10;99.90;;;;;;5058321;28;20040;-67
2023/06/23 04:27:14;;;;;;;31.92;21.70;;;18.10;99.90;;;;;;5054518;28;20037;-66
2023/06/23 04:29:44;;;;;;;30.02;20.55;;;18.10;99.90;;;;;;5059347;28;20024;-67
2023/06/23 04:32:12;;;;;;;34.65;20.50;;;18.10;99.90;;;;;;5061349;28;20037;-67
2023/06/23 04:34:38;;;;;;;30.40;19.83;;;18.10;99.90;;;;;;5059891;28;20035;-67
2023/06/23 04:37:19;;;;;;;30.17;19.77;;;18.10;99.90;;;;;;5042131;28;20078;-67
2023/06/23 04:40:16;;;;;;;24.33;18.83;;;18.10;99.90;;;;;;5056857;28;20041;-67
2023/06/23 04:42:52;;;;;;;27.70;19.10;;;18.20;99.90;;;;;;5057935;28;20021;-67
2023/06/23 04:45:23;;;;;;;25.95;20.25;;;18.30;99.90;;;;;;5052173;28;20071;-66
2023/06/23 04:47:56;;;;;;;28.23;19.90;;;18.30;99.90;;;;;;5036207;28;20086;-67
2023/06/23 04:50:25;;;;;;;25.67;18.98;;;18.30;99.90;;;;;;5056822;28;20039;-67
2023/06/23 04:52:55;;;;;;;24.42;19.00;;;18.30;99.90;;;;;;5052405;28;20033;-67
2023/06/23 04:55:29;;;;;;;26.23;18.92;;;18.50;99.90;;;;;;5057938;28;20113;-67
2023/06/23 04:57:58;;;;;;;26.13;18.23;;;18.40;99.90;;;;;;5058575;28;20029;-67
2023/06/23 05:00:25;;;;;;;25.50;18.67;;;18.50;99.90;;;;;;5053705;28;20089;-67
2023/06/23 05:02:55;;;;;;;25.52;17.75;;;18.50;99.90;;;;;;5056316;28;20029;-67
2023/06/23 05:05:24;;;;;;;23.88;18.00;;;18.50;99.90;;;;;;5058514;28;20087;-67
2023/06/23 05:07:52;;;;;;;28.88;19.92;;;18.50;99.90;;;;;;5057795;28;20494;-66
2023/06/23 05:10:19;;;;;;;28.42;18.42;;;18.50;99.90;;;;;;5057430;28;20037;-67
2023/06/23 05:12:48;;;;;;;26.05;18.70;;;18.60;99.90;;;;;;5055121;28;20043;-69
2023/06/23 05:15:16;;;;;;;31.08;18.17;;;18.80;99.90;;;;;;5055848;28;20073;-67
2023/06/23 05:17:44;;;;;;;26.92;17.70;;;18.90;99.90;;;;;;5058065;28;20021;-66
2023/06/23 05:20:11;;;;;;;24.13;17.02;;;19.10;99.90;;;;;;5059693;28;20484;-67
2023/06/23 05:22:38;;;;;;;36.15;17.13;;;19.40;99.90;;;;;;5057474;28;20028;-66
2023/06/23 05:25:06;;;;;;;22.95;16.45;;;19.50;99.90;;;;;;5061785;28;20031;-68
2023/06/23 05:27:35;;;;;;;29.02;16.52;;;19.50;99.90;;;;;;5054675;28;20017;-66
2023/06/23 05:30:03;;;;;;;20.05;15.70;;;19.70;99.90;;;;;;5037352;28;20040;-68
2023/06/23 05:32:32;;;;;;;25.33;15.40;;;19.90;99.90;;;;;;5061638;28;20578;-66
2023/06/23 05:35:03;;;;;;;22.88;14.65;;;20.40;99.90;;;;;;5057489;28;20032;-66
2023/06/23 05:37:33;;;;;;;22.05;14.13;;;20.60;99.90;;;;;;5056607;28;20037;-66
2023/06/23 05:40:03;;;;;;;23.17;14.48;;;20.60;99.90;;;;;;5057260;28;20602;-67
2023/06/23 05:42:32;;;;;;;20.52;13.82;;;21.00;99.90;;;;;;5041858;28;20056;-67
2023/06/23 05:45:02;;;;;;;16.35;12.45;;;21.70;99.90;;;;;;5058670;28;20036;-67
2023/06/23 05:47:35;;;;;;;21.55;12.57;;;22.50;99.90;;;;;;5058032;28;20495;-67
2023/06/23 05:50:07;;;;;;;17.58;12.13;;;23.00;99.90;;;;;;5057187;28;20082;-67
2023/06/23 05:52:35;;;;;;;19.83;11.80;;;23.40;99.90;;;;;;5058229;28;20036;-67
2023/06/23 05:55:04;;;;;;;18.83;10.88;;;24.10;99.90;;;;;;5058784;28;20056;-67
2023/06/23 05:57:33;;;;;;;18.05;12.57;;;24.70;99.90;;;;;;5059375;28;20025;-67
2023/06/23 06:00:05;;;;;;;23.23;12.27;;;23.30;99.90;;;;;;5060910;28;20078;-67
2023/06/23 06:02:35;;;;;;;28.75;15.20;;;22.40;99.90;;;;;;5061194;28;20108;-68
2023/06/23 06:05:05;;;;;;;19.30;12.65;;;21.90;99.90;;;;;;5061072;28;20025;-68
2023/06/23 06:07:32;;;;;;;23.42;14.02;;;21.30;99.90;;;;;;5039143;28;20021;-68
2023/06/23 06:10:00;;;;;;;23.55;15.32;;;21.10;99.90;;;;;;5062463;28;20056;-69
2023/06/23 06:12:27;;;;;;;22.95;14.30;;;21.00;99.90;;;;;;5058258;28;20032;-69
2023/06/23 06:14:55;;;;;;;22.83;15.65;;;21.00;99.90;;;;;;5064447;28;20107;-68
2023/06/23 06:17:23;;;;;;;25.13;16.08;;;21.10;99.90;;;;;;5059171;28;20025;-68
2023/06/23 06:19:51;;;;;;;26.40;15.55;;;21.40;99.90;;;;;;5061984;28;20103;-68
2023/06/23 06:22:18;;;;;;;26.17;16.80;;;21.50;99.90;;;;;;5061149;28;20036;-68
2023/06/23 06:24:47;;;;;;;20.83;14.25;;;21.80;99.90;;;;;;5060304;28;20132;-68
2023/06/23 06:27:14;;;;;;;21.40;14.40;;;23.20;99.90;;;;;;5060567;28;20032;-67
2023/06/23 06:29:42;;;;;;;19.42;13.23;;;23.50;99.90;;;;;;5059416;28;20028;-68
2023/06/23 06:32:09;;;;;;;17.00;12.82;;;25.00;99.90;;;;;;5062624;28;20024;-69
2023/06/23 06:34:36;;;;;;;19.92;12.60;;;26.50;98.80;;;;;;5062145;28;20354;-70
2023/06/23 06:37:03;;;;;;;20.10;12.70;;;27.20;95.20;;;;;;5061804;28;20033;-69
2023/06/23 06:39:30;;;;;;;14.77;12.35;;;27.30;94.00;;;;;;5059943;28;20226;-68
2023/06/23 06:41:59;;;;;;;17.08;11.20;;;27.80;92.60;;;;;;5064510;28;20032;-70
2023/06/23 06:44:25;;;;;;;13.52;10.50;;;26.30;94.00;;;;;;5062819;28;20029;-70
2023/06/23 06:46:53;;;;;;;20.50;12.23;;;24.70;95.80;;;;;;5059611;28;20082;-69
2023/06/23 06:49:21;;;;;;;13.90;11.30;;;23.60;99.90;;;;;;5062389;28;20290;-71
2023/06/23 06:51:49;;;;;;;14.85;11.52;;;24.00;99.90;;;;;;5062868;28;20037;-69
2023/06/23 06:54:16;;;;;;;19.33;11.60;;;25.10;98.90;;;;;;5059522;28;20044;-67
2023/06/23 06:56:42;;;;;;;18.92;11.27;;;26.50;95.90;;;;;;5062694;28;20036;-68
2023/06/23 06:59:08;;;;;;;21.73;10.23;;;27.40;91.70;;;;;;5060779;28;20304;-71
2023/06/23 07:01:34;;;;;;;;;;;28.50;90.80;;;;;;5058951;28;20086;-69
2023/06/23 07:04:02;;;;;;;20.75;9.63;;;28.10;88.20;;;;;;5061931;28;19950;-72
2023/06/23 07:06:27;;;;;;;20.77;9.05;;;27.70;89.00;;;;;;5060995;28;20024;-69
2023/06/23 07:08:53;;;;;;;17.25;9.82;;;26.40;92.20;;;;;;5056636;28;20508;-71
2023/06/23 07:11:19;;;;;;;16.27;9.00;;;26.30;92.60;;;;;;5057606;28;20127;-68
2023/06/23 07:13:45;;;;;;;12.55;9.02;;;25.80;95.20;;;;;;5058499;28;20025;-68
2023/06/23 07:16:10;;;;;;;12.48;9.20;;;25.40;94.60;;;;;;5062442;28;20087;-68
2023/06/23 07:18:37;;;;;;;13.65;9.20;;;24.10;98.30;;;;;;5059829;28;20075;-67
2023/06/23 07:21:04;;;;;;;12.82;10.73;;;23.80;99.90;;;;;;5058582;28;20068;-66
2023/06/23 07:23:30;;;;;;;148.15;34.72;;;23.60;99.90;;;;;;5058741;28;20029;-69
2023/06/23 07:25:57;;;;;;;34.10;15.05;;;23.40;99.90;;;;;;5064150;28;20035;-68
2023/06/23 07:28:23;;;;;;;30.20;15.70;;;23.70;99.90;;;;;;5061106;28;20059;-67
2023/06/23 07:30:49;;;;;;;23.90;12.63;;;23.80;99.90;;;;;;5068521;28;20752;-68
2023/06/23 07:33:14;;;;;;;17.33;11.52;;;23.50;99.90;;;;;;5056969;28;20526;-68
2023/06/23 07:35:40;;;;;;;25.92;12.98;;;23.20;99.90;;;;;;5059493;28;20107;-68
2023/06/23 07:38:05;;;;;;;20.50;12.48;;;22.90;99.90;;;;;;5058430;28;20052;-68
2023/06/23 07:40:33;;;;;;;15.88;11.23;;;22.40;99.90;;;;;;5062789;28;20040;-67
2023/06/23 07:42:58;;;;;;;20.45;11.43;;;22.30;99.90;;;;;;5060504;28;20459;-69
2023/06/23 07:45:24;;;;;;;19.98;11.60;;;22.20;99.90;;;;;;5059926;28;20052;-68
2023/06/23 07:47:49;;;;;;;15.30;10.83;;;22.40;99.90;;;;;;5061266;28;20036;-69
2023/06/23 07:50:15;;;;;;;18.03;11.57;;;23.10;99.90;;;;;;5056873;28;20036;-68
2023/06/23 07:52:41;;;;;;;18.07;11.73;;;22.90;99.90;;;;;;5060830;28;20294;-68
2023/06/23 07:55:07;;;;;;;16.77;10.73;;;22.70;99.90;;;;;;5039304;28;20036;-68
2023/06/23 07:57:32;;;;;;;14.20;11.27;;;22.80;99.90;;;;;;5058154;28;20036;-69
2023/06/23 07:59:58;;;;;;;18.63;11.40;;;23.10;99.90;;;;;;5058358;28;20097;-68
2023/06/23 08:02:23;;;;;;;14.10;10.43;;;23.00;99.90;;;;;;5058166;28;20024;-68
2023/06/23 08:04:50;;;;;;;12.50;10.20;;;23.10;99.90;;;;;;5059983;28;20294;-68
2023/06/23 08:07:15;;;;;;;16.15;10.55;;;23.40;99.90;;;;;;5060504;28;20381;-68
2023/06/23 08:09:41;;;;;;;11.63;9.68;;;23.70;99.90;;;;;;5057783;28;20040;-68
2023/06/23 08:12:07;;;;;;;12.88;9.32;;;23.70;99.90;;;;;;5059861;28;20393;-68
2023/06/23 08:14:33;;;;;;;15.73;9.52;;;23.60;99.90;;;;;;5060024;28;20037;-68
2023/06/23 08:16:59;;;;;;;12.73;8.93;;;23.80;99.90;;;;;;5057803;28;20444;-68
2023/06/23 08:19:25;;;;;;;15.40;9.70;;;25.50;98.60;;;;;;5055666;28;20282;-68
2023/06/23 08:21:51;;;;;;;13.97;8.67;;;26.70;94.50;;;;;;5060447;28;20054;-68
2023/06/23 08:24:17;;;;;;;23.65;8.40;;;30.20;83.00;;;;;;5059107;28;20026;-68
2023/06/23 08:26:44;;;;;;;14.00;8.02;;;32.10;75.30;;;;;;5059104;28;20029;-68
2023/06/23 08:29:10;;;;;;;14.85;7.63;;;33.10;69.30;;;;;;5057002;28;20037;-68
2023/06/23 08:31:36;;;;;;;12.10;6.63;;;33.30;65.80;;;;;;5061909;28;20035;-68
2023/06/23 08:34:01;;;;;;;8.68;6.78;;;31.20;71.00;;;;;;5059942;28;20016;-68
2023/06/23 08:36:27;;;;;;;8.75;6.75;;;28.70;76.10;;;;;;5053927;28;20041;-68
2023/06/23 08:38:52;;;;;;;12.52;8.30;;;27.50;82.70;;;;;;5060538;28;20617;-68
2023/06/23 08:41:21;;;;;;;12.02;7.15;;;28.10;79.70;;;;;;5060762;28;20056;-68
2023/06/23 08:43:48;;;;;;;9.15;5.88;;;27.10;81.70;;;;;;5060257;28;20459;-68
2023/06/23 08:46:15;;;;;;;8.25;5.80;;;27.40;81.20;;;;;;5043410;28;20526;-68
2023/06/23 08:48:46;;;;;;;7.03;5.80;;;28.10;80.00;;;;;;5060362;28;20020;-68
2023/06/23 08:51:13;;;;;;;12.30;6.47;;;27.40;81.10;;;;;;5057463;28;20085;-68
2023/06/23 08:53:39;;;;;;;8.23;5.63;;;26.40;82.70;;;;;;5058907;28;20025;-68
2023/06/23 08:56:05;;;;;;;;;;;25.80;87.80;;;;;;5057147;28;20048;-67
2023/06/23 08:58:30;;;;;;;12.43;6.55;;;28.30;79.00;;;;;;5057794;28;19912;-68
2023/06/23 09:00:56;;;;;;;12.80;6.57;;;31.70;69.70;;;;;;5057681;28;20067;-67
2023/06/23 09:03:23;;;;;;;9.77;5.82;;;33.30;64.30;;;;;;5044743;28;20032;-67
2023/06/23 09:05:49;;;;;;;8.23;5.68;;;34.30;61.60;;;;;;5056535;28;20029;-67
2023/06/23 09:08:14;;;;;;;;;;;35.50;59.60;;;;;;5055547;28;20105;-68
2023/06/23 09:10:40;;;;;;;8.43;5.10;;;35.90;58.00;;;;;;5063222;28;19916;-68
2023/06/23 09:13:23;;;;;;;;;;;35.20;56.00;;;;;;5059973;28;20123;-69
2023/06/23 09:15:49;;;;;;;9.32;4.97;;;35.80;57.00;;;;;;5057376;28;19923;-69
2023/06/23 09:18:16;;;;;;;9.52;5.40;;;37.80;54.60;;;;;;5063161;28;20039;-68
2023/06/23 09:20:48;;;;;;;7.35;4.90;;;38.60;54.40;;;;;;5040481;28;20048;-68
2023/06/23 09:23:18;;;;;;;8.55;4.38;;;38.00;52.50;;;;;;5061773;28;20048;-69
2023/06/23 09:25:54;;;;;;;5.65;4.32;;;38.90;53.60;;;;;;5034298;28;20040;-69
2023/06/23 09:28:28;;;;;;;6.30;4.72;;;38.10;54.20;;;;;;5059750;28;20074;-69
2023/06/23 09:30:58;;;;;;;7.28;4.75;;;37.90;51.10;;;;;;5057620;28;20202;-69
2023/06/23 09:33:25;;;;;;;7.45;4.68;;;38.10;53.10;;;;;;5055727;28;20119;-68
2023/06/23 09:35:53;;;;;;;6.65;4.55;;;37.60;51.50;;;;;;5062799;28;20029;-69
2023/06/23 09:38:23;;;;;;;5.45;4.13;;;38.40;51.70;;;;;;5064730;28;20036;-68
2023/06/23 09:41:09;;;;;;;32.90;8.50;;;38.40;53.10;;;;;;5067385;28;20040;-68
2023/06/23 09:43:45;;;;;;;8.27;4.70;;;38.80;51.40;;;;;;5060334;28;20520;-68
2023/06/23 09:46:13;;;;;;;9.15;5.85;;;38.20;50.20;;;;;;5059914;28;20033;-67
2023/06/23 09:48:40;;;;;;;14.05;5.03;;;38.50;50.60;;;;;;5057744;28;20029;-68
2023/06/23 09:51:06;;;;;;;10.35;4.15;;;38.60;50.90;;;;;;5062705;28;20108;-67
2023/06/23 09:53:37;;;;;;;10.65;4.72;;;40.10;49.70;;;;;;5048288;28;20228;-68
2023/06/23 09:56:04;;;;;;;8.93;4.43;;;40.70;49.40;;;;;;5064063;28;20024;-67
2023/06/23 09:58:32;;;;;;;8.95;3.88;;;38.40;50.30;;;;;;5064385;28;20046;-67
2023/06/23 10:01:07;;;;;;;5.65;3.92;;;39.20;48.50;;;;;;5063567;28;20502;-67
2023/06/23 10:03:43;;;;;;;6.85;3.90;;;38.40;51.10;;;;;;5063319;28;20396;-68
2023/06/23 10:06:25;;;;;;;6.22;3.83;;;37.80;52.50;;;;;;5060268;28;20486;-68
2023/06/23 10:08:56;;;;;;;8.35;4.35;;;39.80;51.10;;;;;;5060980;28;20142;-68
2023/06/23 10:11:54;;;;;;;5.28;4.57;;;40.60;49.40;;;;;;5061055;28;20131;-67
2023/06/23 10:14:20;;;;;;;7.10;3.70;;;41.40;47.90;;;;;;5020476;28;20132;-67
2023/06/23 10:16:46;;;;;;;11.13;3.95;;;40.40;48.90;;;;;;5063380;28;20048;-67
2023/06/23 10:19:12;;;;;;;9.73;4.60;;;40.40;50.00;;;;;;5060091;28;20051;-67
2023/06/23 10:21:40;;;;;;;6.43;3.80;;;38.80;49.80;;;;;;5058209;28;20345;-66
2023/06/23 10:24:08;;;;;;;8.98;4.13;;;35.80;54.10;;;;;;5063528;28;20119;-67
2023/06/23 10:26:36;;;;;;;8.07;3.72;;;33.30;58.90;;;;;;5062733;28;20025;-67
2023/06/23 10:29:07;;;;;;;5.25;4.18;;;31.90;59.60;;;;;;5042492;28;20516;-67
2023/06/23 10:31:34;;;;;;;8.95;4.38;;;30.80;64.50;;;;;;5061357;28;20025;-67
2023/06/23 10:34:06;;;;;;;6.45;4.28;;;29.80;65.50;;;;;;5059551;28;20555;-66
2023/06/23 10:36:38;;;;;;;4.88;3.58;;;29.50;66.70;;;;;;5054840;28;20020;-66
2023/06/23 10:39:05;;;;;;;5.80;3.90;;;28.80;66.90;;;;;;5062667;28;20040;-67
2023/06/23 10:41:33;;;;;;;5.25;4.10;;;28.30;66.80;;;;;;5056730;28;20029;-67
2023/06/23 10:44:01;;;;;;;6.78;4.15;;;28.20;67.10;;;;;;5061406;28;20099;-67
2023/06/23 10:46:27;;;;;;;5.38;3.85;;;28.40;67.90;;;;;;5057092;28;20035;-67
2023/06/23 10:48:53;;;;;;;6.70;4.10;;;28.70;66.70;;;;;;5060643;28;20029;-67
2023/06/23 10:51:20;;;;;;;6.72;3.78;;;29.00;69.20;;;;;;5047958;28;20044;-68
2023/06/23 10:54:07;;;;;;;5.32;3.25;;;29.00;66.80;;;;;;5058997;28;20028;-68
2023/06/23 10:56:42;;;;;;;5.75;4.10;;;29.00;67.00;;;;;;5058786;28;20035;-68
2023/06/23 10:59:22;;;;;;;5.20;3.85;;;28.80;69.40;;;;;;5063429;28;20041;-68
2023/06/23 11:02:00;;;;;;;5.80;3.58;;;28.60;69.70;;;;;;5062251;28;20040;-68
2023/06/23 11:04:27;;;;;;;11.40;3.83;;;28.40;68.80;;;;;;5058652;28;20488;-68
2023/06/23 11:07:15;;;;;;;5.75;4.55;;;28.40;70.00;;;;;;5066326;28;20096;-68
2023/06/23 11:09:55;;;;;;;7.57;3.70;;;28.40;69.80;;;;;;5044427;28;20036;-67
2023/06/23 11:12:29;;;;;;;6.85;4.60;;;28.50;68.90;;;;;;5059780;28;20450;-67
2023/06/23 11:15:08;;;;;;;7.18;4.22;;;28.30;70.30;;;;;;5059047;28;20036;-68
2023/06/23 11:17:59;;;;;;;4.55;3.63;;;28.60;68.80;;;;;;5063457;28;20818;-68
2023/06/23 11:20:25;;;;;;;4.78;3.80;;;28.60;70.50;;;;;;5063216;28;20103;-67
2023/06/23 11:23:08;;;;;;;7.28;3.53;;;28.40;69.60;;;;;;5046555;28;20124;-68
2023/06/23 11:25:48;;;;;;;17.95;5.00;;;28.00;66.20;;;;;;5059461;28;20377;-67
2023/06/23 11:28:35;;;;;;;6.82;3.17;;;28.20;72.10;;;;;;5060038;28;20552;-68
2023/06/23 11:31:15;;;;;;;4.40;3.55;;;28.40;69.90;;;;;;5058941;28;20037;-68
2023/06/23 11:33:58;;;;;;;6.88;3.55;;;28.50;68.70;;;;;;5059235;28;20040;-68
2023/06/23 11:36:26;;;;;;;6.57;3.63;;;28.00;67.90;;;;;;5058031;28;20082;-67
2023/06/23 11:38:53;;;;;;;6.88;4.55;;;27.60;68.80;;;;;;5061730;28;20024;-68
2023/06/23 11:41:27;;;;;;;6.55;3.58;;;27.70;70.90;;;;;;5059583;28;20484;-68
2023/06/23 11:43:57;;;;;;;7.03;3.10;;;28.10;70.30;;;;;;5047597;28;20090;-68
2023/06/23 11:46:23;;;;;;;7.32;3.72;;;28.20;70.00;;;;;;5063976;28;20040;-67
2023/06/23 11:48:49;;;;;;;;;;;28.00;70.90;;;;;;5047265;28;20435;-68
2023/06/23 11:51:16;;;;;;;5.18;3.45;;;28.00;68.70;;;;;;5064168;28;19969;-68
2023/06/23 11:53:43;;;;;;;4.00;3.17;;;27.90;67.30;;;;;;5059063;28;20037;-68
2023/06/23 11:56:13;;;;;;;6.75;3.83;;;27.90;69.20;;;;;;5059225;28;20454;-67
2023/06/23 11:58:38;;;;;;;5.88;3.42;;;28.10;67.90;;;;;;5060482;28;20032;-68
2023/06/23 12:01:04;;;;;;;5.07;3.33;;;28.30;65.80;;;;;;5061091;28;20542;-68
2023/06/23 12:03:31;;;;;;;4.63;3.53;;;27.90;65.40;;;;;;5055583;28;20036;-68
2023/06/23 12:05:59;;;;;;;6.05;3.78;;;28.10;69.80;;;;;;5061921;28;20458;-68
2023/06/23 12:08:26;;;;;;;5.30;3.53;;;28.40;67.10;;;;;;5058515;28;20910;-69
2023/06/23 12:10:53;;;;;;;6.85;3.40;;;28.10;69.30;;;;;;5060441;28;20033;-67
2023/06/23 12:13:19;;;;;;;8.30;3.88;;;28.30;68.00;;;;;;5063451;28;20111;-67
2023/06/23 12:15:45;;;;;;;4.55;3.75;;;28.10;67.80;;;;;;5058131;28;20091;-69
2023/06/23 12:18:11;;;;;;;6.80;4.57;;;28.10;67.10;;;;;;5062505;28;20028;-69
2023/06/23 12:20:43;;;;;;;6.32;3.58;;;28.00;68.50;;;;;;5063519;28;20033;-68
2023/06/23 12:23:14;;;;;;;6.13;3.38;;;27.90;67.50;;;;;;5060027;28;20512;-68
2023/06/23 12:25:44;;;;;;;4.35;3.50;;;28.00;66.50;;;;;;5057264;28;20040;-68
2023/06/23 12:28:19;;;;;;;5.25;3.78;;;27.90;69.30;;;;;;5054943;28;20032;-68
2023/06/23 12:30:49;;;;;;;4.68;3.97;;;27.90;66.40;;;;;;5057794;28;20075;-68
2023/06/23 12:33:27;;;;;;;4.80;3.47;;;27.80;66.90;;;;;;5057046;28;20028;-68
2023/06/23 12:36:04;;;;;;;6.32;3.63;;;28.00;64.00;;;;;;5042709;28;20416;-68
2023/06/23 12:38:31;;;;;;;;;;;28.00;64.70;;;;;;5056588;28;20141;-68
2023/06/23 12:41:20;;;;;;;3.65;3.10;;;28.00;65.10;;;;;;5060771;28;19912;-68
2023/06/23 12:43:47;;;;;;;7.70;3.10;;;27.90;65.80;;;;;;5044561;28;20029;-69
2023/06/23 12:46:16;;;;;;;7.88;3.45;;;27.70;64.70;;;;;;5055923;28;20029;-68